createdAt,value
2023-04-26T00:00:45.822Z,5.18
2023-04-26T00:03:14.810Z,5.16
2023-04-26T00:05:42.831Z,5.16
2023-04-26T00:08:10.573Z,5.18
2023-04-26T00:10:40.349Z,5.09
2023-04-26T00:13:08.288Z,4.99
2023-04-26T00:15:36.469Z,5.01
2023-04-26T00:18:06.080Z,5.11
2023-04-26T00:20:33.828Z,5.14
2023-04-26T00:23:01.644Z,5.21
2023-04-26T00:25:29.289Z,5.14
2023-04-26T00:27:56.950Z,5.16
2023-04-26T00:30:24.576Z,5.22
2023-04-26T00:32:52.259Z,4.87
2023-04-26T00:35:21.555Z,4.52
2023-04-26T00:37:49.213Z,4.56
2023-04-26T00:40:17.377Z,4.55
2023-04-26T00:42:45.114Z,4.50
2023-04-26T00:45:12.807Z,4.61
2023-04-26T00:47:40.531Z,4.74
2023-04-26T00:50:10.569Z,4.84
2023-04-26T00:52:40.027Z,4.93
2023-04-26T00:55:08.920Z,5.00
2023-04-26T00:57:36.630Z,5.00
2023-04-26T01:00:05.670Z,5.03
2023-04-26T01:02:33.637Z,5.05
2023-04-26T01:05:01.382Z,5.08
2023-04-26T01:07:29.122Z,5.09
2023-04-26T01:09:59.245Z,5.06
2023-04-26T01:12:27.530Z,5.09
2023-04-26T01:14:55.466Z,5.09
2023-04-26T01:17:23.166Z,5.09
2023-04-26T01:19:51.429Z,5.11
2023-04-26T01:22:19.237Z,5.11
2023-04-26T01:24:51.548Z,5.14
2023-04-26T01:27:19.321Z,5.09
2023-04-26T01:29:47.597Z,4.94
2023-04-26T01:32:15.273Z,4.85
2023-04-26T01:34:42.945Z,4.88
2023-04-26T01:37:10.765Z,4.79
2023-04-26T01:39:39.586Z,4.73
2023-04-26T01:42:08.597Z,4.65
2023-04-26T01:44:36.329Z,4.72
2023-04-26T01:47:04.572Z,4.79
2023-04-26T01:49:32.579Z,4.76
2023-04-26T01:52:00.303Z,4.64
2023-04-26T01:54:27.924Z,4.60
2023-04-26T01:56:55.676Z,4.65
2023-04-26T01:59:24.704Z,4.72
2023-04-26T02:01:52.461Z,4.78
2023-04-26T02:04:20.122Z,4.82
2023-04-26T02:06:47.770Z,4.78
2023-04-26T02:09:15.851Z,4.75
2023-04-26T02:11:43.534Z,4.73
2023-04-26T02:14:11.178Z,4.73
2023-04-26T02:16:41.684Z,4.75
2023-04-26T02:19:10.843Z,4.72
2023-04-26T02:21:52.721Z,4.79
2023-04-26T02:24:21.487Z,4.76
2023-04-26T02:26:49.159Z,4.75
2023-04-26T02:29:17.010Z,4.77
2023-04-26T02:31:46.042Z,4.81
2023-04-26T02:34:13.934Z,4.81
2023-04-26T02:36:41.594Z,4.82
2023-04-26T02:39:09.386Z,4.83
2023-04-26T02:41:37.070Z,4.86
2023-04-26T02:44:04.852Z,4.86
2023-04-26T02:46:32.585Z,4.88
2023-04-26T02:49:01.637Z,4.89
2023-04-26T02:51:29.479Z,4.89
2023-04-26T02:53:57.132Z,4.88
2023-04-26T02:56:24.919Z,4.89
2023-04-26T02:58:52.856Z,4.80
2023-04-26T03:01:21.112Z,4.67
2023-04-26T03:03:49.331Z,4.57
2023-04-26T03:06:18.457Z,4.56
2023-04-26T03:08:46.120Z,4.57
2023-04-26T03:11:13.772Z,4.59
2023-04-26T03:13:41.411Z,4.60
2023-04-26T03:16:09.432Z,4.58
2023-04-26T03:18:37.511Z,4.58
2023-04-26T03:21:05.146Z,4.60
2023-04-26T03:23:34.182Z,4.63
2023-04-26T03:26:01.929Z,4.67
2023-04-26T03:28:29.598Z,4.68
2023-04-26T03:30:57.318Z,4.72
2023-04-26T03:33:25.008Z,4.73
2023-04-26T03:35:52.693Z,4.69
2023-04-26T03:38:20.411Z,4.69
2023-04-26T03:40:49.404Z,4.73
2023-04-26T03:43:17.057Z,4.74
2023-04-26T03:45:48.756Z,4.72
2023-04-26T03:48:17.225Z,4.62
2023-04-26T03:50:45.982Z,4.63
2023-04-26T03:53:13.873Z,4.60
2023-04-26T03:55:41.544Z,4.56
2023-04-26T03:58:10.632Z,4.56
2023-04-26T04:00:38.801Z,4.56
2023-04-26T04:03:07.473Z,4.58
2023-04-26T04:05:35.637Z,4.54
2023-04-26T04:08:03.263Z,4.55
2023-04-26T04:10:30.995Z,4.57
2023-04-26T04:12:59.202Z,4.57
2023-04-26T04:15:28.269Z,4.56
2023-04-26T04:17:56.049Z,4.54
2023-04-26T04:20:23.721Z,4.55
2023-04-26T04:22:51.716Z,4.58
2023-04-26T04:25:21.251Z,4.63
2023-04-26T04:27:50.209Z,4.62
2023-04-26T04:30:17.992Z,4.66
2023-04-26T04:32:47.118Z,4.63
2023-04-26T04:35:14.957Z,4.64
2023-04-26T04:37:44.133Z,4.64
2023-04-26T04:40:13.229Z,4.66
2023-04-26T04:42:41.004Z,4.70
2023-04-26T04:45:09.844Z,4.70
2023-04-26T04:47:39.706Z,4.73
2023-04-26T04:50:09.904Z,4.74
2023-04-26T04:52:37.817Z,4.69
2023-04-26T04:55:06.295Z,4.71
2023-04-26T04:57:33.943Z,4.73
2023-04-26T05:00:08.531Z,4.74
2023-04-26T05:02:36.741Z,4.76
2023-04-26T05:05:05.491Z,4.76
2023-04-26T05:07:34.870Z,4.78
2023-04-26T05:10:02.700Z,4.81
2023-04-26T05:12:30.490Z,4.85
2023-04-26T05:14:58.133Z,4.88
2023-04-26T05:17:25.894Z,4.87
2023-04-26T05:19:53.561Z,4.88
2023-04-26T05:22:22.268Z,4.85
2023-04-26T05:24:51.306Z,4.86
2023-04-26T05:27:18.970Z,4.77
2023-04-26T05:29:46.789Z,4.84
2023-04-26T05:32:14.454Z,4.85
2023-04-26T05:34:42.323Z,4.88
2023-04-26T05:37:09.969Z,4.93
2023-04-26T05:39:37.561Z,4.90
2023-04-26T05:42:06.882Z,4.83
2023-04-26T05:44:34.492Z,4.93
2023-04-26T05:47:02.108Z,5.01
2023-04-26T05:49:29.778Z,4.88
2023-04-26T05:51:57.418Z,4.95
2023-04-26T05:54:25.063Z,5.05
2023-04-26T05:56:52.694Z,5.12
2023-04-26T05:59:21.693Z,5.18
2023-04-26T06:01:49.360Z,5.24
2023-04-26T06:04:17.346Z,5.30
2023-04-26T06:06:45.061Z,5.36
2023-04-26T06:09:13.097Z,5.43
2023-04-26T06:11:40.833Z,5.44
2023-04-26T06:14:16.881Z,5.43
2023-04-26T06:16:52.509Z,5.17
2023-04-26T06:19:20.143Z,5.19
2023-04-26T06:21:48.762Z,5.35
2023-04-26T06:24:16.420Z,5.43
2023-04-26T06:26:44.061Z,5.50
2023-04-26T06:29:11.843Z,5.57
2023-04-26T06:31:39.520Z,5.74
2023-04-26T06:34:08.669Z,5.71
2023-04-26T06:36:36.740Z,5.85
2023-04-26T06:39:06.232Z,5.99
2023-04-26T06:41:33.905Z,6.00
2023-04-26T06:44:01.522Z,6.17
2023-04-26T06:46:29.194Z,6.29
2023-04-26T06:48:57.090Z,6.36
2023-04-26T06:51:26.959Z,6.41
2023-04-26T06:53:54.802Z,6.43
2023-04-26T06:56:23.689Z,6.48
2023-04-26T06:59:01.565Z,6.59
2023-04-26T07:01:29.528Z,6.46
2023-04-26T07:03:58.462Z,6.32
2023-04-26T07:06:27.842Z,6.24
2023-04-26T07:08:55.523Z,6.32
2023-04-26T07:11:25.299Z,6.40
2023-04-26T07:13:53.846Z,6.51
2023-04-26T07:16:21.736Z,6.54
2023-04-26T07:18:49.432Z,6.66
2023-04-26T07:21:17.047Z,6.64
2023-04-26T07:23:46.123Z,6.69
2023-04-26T07:26:13.759Z,6.82
2023-04-26T07:28:41.606Z,7.03
2023-04-26T07:31:10.674Z,7.20
2023-04-26T07:33:38.880Z,7.39
2023-04-26T07:36:06.992Z,7.37
2023-04-26T07:38:34.638Z,7.36
2023-04-26T07:41:04.599Z,7.36
2023-04-26T07:43:32.729Z,7.55
2023-04-26T07:46:02.104Z,7.68
2023-04-26T07:48:29.915Z,7.68
2023-04-26T07:50:57.655Z,7.90
2023-04-26T07:53:25.449Z,8.10
2023-04-26T07:55:53.160Z,8.16
2023-04-26T07:58:22.262Z,8.27
2023-04-26T08:00:49.885Z,8.36
2023-04-26T08:03:18.124Z,8.30
2023-04-26T08:05:46.181Z,8.25
2023-04-26T08:08:14.107Z,8.09
2023-04-26T08:10:42.674Z,8.19
2023-04-26T08:13:10.388Z,8.40
2023-04-26T08:15:39.417Z,8.52
2023-04-26T08:18:07.238Z,8.56
2023-04-26T08:20:34.932Z,8.70
2023-04-26T08:23:02.583Z,8.70
2023-04-26T08:25:30.467Z,8.25
2023-04-26T08:27:58.086Z,8.06
2023-04-26T08:30:25.788Z,7.64
2023-04-26T08:32:54.816Z,7.93
2023-04-26T08:35:22.705Z,8.17
2023-04-26T08:37:50.648Z,8.45
2023-04-26T08:40:23.414Z,8.51
2023-04-26T08:42:52.692Z,8.44
2023-04-26T08:45:21.197Z,8.39
2023-04-26T08:47:51.100Z,8.51
2023-04-26T08:50:22.686Z,8.65
2023-04-26T08:52:52.293Z,8.73
2023-04-26T08:55:21.894Z,8.62
2023-04-26T08:57:50.537Z,8.85
2023-04-26T09:00:19.767Z,9.05
2023-04-26T09:02:49.702Z,8.61
2023-04-26T09:05:17.601Z,8.44
2023-04-26T09:07:47.591Z,8.71
2023-04-26T09:10:19.269Z,9.12
2023-04-26T09:12:46.874Z,9.11
2023-04-26T09:15:15.965Z,9.18
2023-04-26T09:21:24.604Z,9.40
2023-04-26T09:24:01.658Z,9.16
2023-04-26T09:26:29.322Z,9.00
2023-04-26T09:29:12.386Z,8.84
2023-04-26T09:31:41.577Z,9.13
2023-04-26T09:34:10.188Z,9.15
2023-04-26T09:36:51.554Z,9.39
2023-04-26T09:39:33.794Z,8.84
2023-04-26T09:42:01.926Z,8.99
2023-04-26T09:44:31.067Z,9.56
2023-04-26T09:47:00.073Z,9.54
2023-04-26T09:49:28.321Z,9.50
2023-04-26T09:52:05.758Z,8.82
2023-04-26T09:54:43.098Z,9.27
2023-04-26T09:57:11.187Z,9.81
2023-04-26T09:59:43.184Z,9.44
2023-04-26T10:02:15.514Z,9.91
2023-04-26T10:04:46.213Z,10.07
2023-04-26T10:07:14.615Z,10.09
2023-04-26T10:09:44.039Z,10.35
2023-04-26T10:12:12.437Z,10.64
2023-04-26T10:14:40.197Z,10.42
2023-04-26T10:17:08.331Z,10.68
2023-04-26T10:19:37.347Z,10.40
2023-04-26T10:22:07.177Z,10.66
2023-04-26T10:24:35.828Z,10.54
2023-04-26T10:27:05.384Z,10.77
2023-04-26T10:30:09.170Z,10.75
2023-04-26T10:33:16.478Z,11.28
2023-04-26T10:36:06.396Z,11.12
2023-04-26T10:38:34.782Z,10.86
2023-04-26T10:41:30.340Z,11.09
2023-04-26T10:44:01.492Z,11.45
2023-04-26T10:46:37.453Z,11.64
2023-04-26T10:49:16.299Z,11.48
2023-04-26T10:52:12.383Z,11.08
2023-04-26T10:54:47.460Z,11.42
2023-04-26T10:57:15.547Z,11.03
2023-04-26T11:00:18.668Z,11.45
2023-04-26T11:02:47.986Z,11.21
2023-04-26T11:05:35.043Z,11.50
2023-04-26T11:08:07.110Z,11.57
2023-04-26T11:10:35.741Z,11.49
2023-04-26T11:13:04.908Z,11.61
2023-04-26T11:15:34.088Z,11.47
2023-04-26T11:18:04.397Z,11.34
2023-04-26T11:20:32.977Z,11.73
2023-04-26T11:23:00.900Z,12.03
2023-04-26T11:25:29.089Z,12.11
2023-04-26T11:28:03.644Z,12.13
2023-04-26T11:30:32.000Z,12.29
2023-04-26T11:33:01.762Z,11.63
2023-04-26T11:35:29.892Z,11.95
2023-04-26T11:38:01.196Z,12.40
2023-04-26T11:40:29.917Z,12.76
2023-04-26T11:43:01.396Z,13.25
2023-04-26T11:45:29.158Z,12.95
2023-04-26T11:47:57.201Z,13.30
2023-04-26T11:50:26.859Z,12.56
2023-04-26T11:52:56.275Z,12.76
2023-04-26T11:55:29.392Z,12.90
2023-04-26T11:57:57.289Z,12.97
2023-04-26T12:00:26.071Z,12.77
2023-04-26T12:02:53.951Z,12.47
2023-04-26T12:05:23.029Z,13.03
2023-04-26T12:07:53.569Z,13.16
2023-04-26T12:10:23.432Z,12.82
2023-04-26T12:12:52.283Z,13.47
2023-04-26T12:15:20.348Z,13.14
2023-04-26T12:17:58.218Z,13.41
2023-04-26T12:20:30.358Z,13.41
2023-04-26T12:23:00.151Z,12.48
2023-04-26T12:25:27.799Z,12.89
2023-04-26T12:27:55.683Z,13.24
2023-04-26T12:30:23.334Z,13.23
2023-04-26T12:32:51.274Z,12.14
2023-04-26T12:35:19.204Z,12.01
2023-04-26T12:37:47.909Z,12.49
2023-04-26T12:40:19.609Z,12.82
2023-04-26T12:42:48.793Z,12.97
2023-04-26T12:45:16.695Z,13.37
2023-04-26T12:47:44.584Z,13.07
2023-04-26T12:50:13.009Z,12.34
2023-04-26T12:52:40.856Z,12.53
2023-04-26T12:55:10.068Z,12.82
2023-04-26T12:57:39.951Z,13.10
2023-04-26T13:00:10.688Z,13.00
2023-04-26T13:02:38.714Z,12.90
2023-04-26T13:05:07.584Z,12.58
2023-04-26T13:07:35.944Z,12.78
2023-04-26T13:10:04.253Z,12.85
2023-04-26T13:12:31.981Z,12.49
2023-04-26T13:15:00.993Z,12.74
2023-04-26T13:17:28.784Z,11.88
2023-04-26T13:19:56.434Z,11.72
2023-04-26T13:22:24.393Z,12.42
2023-04-26T13:24:52.107Z,12.56
2023-04-26T13:27:19.744Z,13.00
2023-04-26T13:29:47.400Z,12.26
2023-04-26T13:32:16.419Z,12.56
2023-04-26T13:34:45.667Z,13.22
2023-04-26T13:37:13.757Z,13.01
2023-04-26T13:39:41.405Z,13.24
2023-04-26T13:42:09.067Z,13.29
2023-04-26T13:44:36.694Z,12.32
2023-04-26T13:47:04.376Z,12.48
2023-04-26T13:49:33.401Z,12.34
2023-04-26T13:52:01.078Z,12.63
2023-04-26T13:54:28.795Z,12.84
2023-04-26T13:56:56.600Z,13.14
2023-04-26T13:59:24.208Z,13.30
2023-04-26T14:01:54.665Z,13.57
2023-04-26T14:04:23.662Z,13.29
2023-04-26T14:06:53.135Z,13.20
2023-04-26T14:09:20.774Z,12.26
2023-04-26T14:11:57.137Z,12.48
2023-04-26T14:14:34.638Z,12.83
2023-04-26T14:17:02.300Z,12.58
2023-04-26T14:19:30.176Z,13.01
2023-04-26T14:21:59.196Z,13.19
2023-04-26T14:24:26.803Z,13.00
2023-04-26T14:26:54.414Z,13.33
2023-04-26T14:29:22.050Z,13.20
2023-04-26T14:31:50.449Z,13.02
2023-04-26T14:34:18.484Z,13.06
2023-04-26T14:36:46.363Z,12.78
2023-04-26T14:39:16.151Z,12.91
2023-04-26T14:41:43.997Z,12.80
2023-04-26T14:44:11.728Z,12.77
2023-04-26T14:46:39.482Z,13.10
2023-04-26T14:49:07.326Z,12.99
2023-04-26T14:51:34.933Z,13.06
2023-04-26T14:54:02.572Z,13.08
2023-04-26T14:56:34.839Z,12.93
2023-04-26T14:59:02.557Z,13.11
2023-04-26T15:01:30.567Z,12.60
2023-04-26T15:04:00.495Z,12.62
2023-04-26T15:06:30.762Z,12.95
2023-04-26T15:08:58.402Z,13.36
2023-04-26T15:11:26.178Z,13.45
2023-04-26T15:13:55.224Z,13.18
2023-04-26T15:16:22.963Z,13.31
2023-04-26T15:18:50.712Z,12.88
2023-04-26T15:21:18.437Z,12.65
2023-04-26T15:23:46.503Z,12.57
2023-04-26T15:26:14.293Z,12.57
2023-04-26T15:28:42.000Z,12.82
2023-04-26T15:31:11.955Z,12.96
2023-04-26T15:33:39.777Z,12.88
2023-04-26T15:36:08.395Z,12.81
2023-04-26T15:38:36.233Z,12.98
2023-04-26T15:41:04.250Z,12.83
2023-04-26T15:43:31.917Z,12.94
2023-04-26T15:45:59.624Z,13.08
2023-04-26T15:48:28.660Z,13.00
2023-04-26T15:50:56.840Z,12.83
2023-04-26T15:53:25.020Z,12.49
2023-04-26T15:55:52.763Z,12.66
2023-04-26T15:58:20.396Z,12.87
2023-04-26T16:00:47.999Z,13.07
2023-04-26T16:03:15.774Z,13.04
2023-04-26T16:05:44.880Z,13.19
2023-04-26T16:08:12.633Z,13.14
2023-04-26T16:10:40.296Z,12.93
2023-04-26T16:13:07.913Z,12.85
2023-04-26T16:15:35.535Z,12.86
2023-04-26T16:18:03.213Z,12.97
2023-04-26T16:20:31.448Z,12.98
2023-04-26T16:23:01.443Z,12.62
2023-04-26T16:25:29.125Z,12.70
2023-04-26T16:27:57.048Z,12.90
2023-04-26T16:30:24.707Z,12.94
2023-04-26T16:32:52.332Z,12.62
2023-04-26T16:35:20.046Z,12.53
2023-04-26T16:37:47.693Z,12.65
2023-04-26T16:40:16.850Z,12.39
2023-04-26T16:42:44.611Z,11.84
2023-04-26T16:45:16.146Z,11.85
2023-04-26T16:47:44.357Z,12.04
2023-04-26T16:50:12.570Z,12.23
2023-04-26T16:52:40.497Z,12.31
2023-04-26T16:55:08.805Z,12.43
2023-04-26T16:57:37.902Z,12.29
2023-04-26T17:00:07.972Z,12.35
2023-04-26T17:02:36.255Z,12.48
2023-04-26T17:05:04.234Z,12.45
2023-04-26T17:07:31.976Z,12.33
2023-04-26T17:09:59.651Z,12.34
2023-04-26T17:12:27.263Z,12.17
2023-04-26T17:14:56.401Z,12.21
2023-04-26T17:17:24.074Z,11.89
2023-04-26T17:19:51.709Z,11.40
2023-04-26T17:22:19.397Z,11.21
2023-04-26T17:24:46.978Z,11.42
2023-04-26T17:27:14.630Z,11.41
2023-04-26T17:29:42.403Z,11.43
2023-04-26T17:32:11.445Z,11.21
2023-04-26T17:34:39.277Z,11.07
2023-04-26T17:37:06.953Z,11.01
2023-04-26T17:39:34.546Z,11.02
2023-04-26T17:42:03.075Z,11.04
2023-04-26T17:44:30.713Z,11.16
2023-04-26T17:46:58.373Z,11.30
2023-04-26T17:49:27.342Z,11.35
2023-04-26T17:51:55.028Z,11.40
2023-04-26T17:54:22.778Z,11.42
2023-04-26T17:56:50.472Z,11.28
2023-04-26T17:59:18.127Z,11.19
2023-04-26T18:01:46.052Z,11.14
2023-04-26T18:04:14.316Z,11.11
2023-04-26T18:06:44.049Z,11.09
2023-04-26T18:09:11.789Z,11.08
2023-04-26T18:11:39.447Z,11.00
2023-04-26T18:14:07.083Z,10.95
2023-04-26T18:16:34.766Z,10.84
2023-04-26T18:19:03.192Z,10.74
2023-04-26T18:21:31.347Z,10.68
2023-04-26T18:24:01.199Z,10.53
2023-04-26T18:26:29.681Z,10.49
2023-04-26T18:28:57.674Z,10.47
2023-04-26T18:31:25.370Z,10.47
2023-04-26T18:33:53.090Z,10.47
2023-04-26T18:36:20.702Z,10.43
2023-04-26T18:38:48.427Z,10.24
2023-04-26T18:41:17.886Z,10.17
2023-04-26T18:43:45.553Z,10.01
2023-04-26T18:46:13.280Z,9.90
2023-04-26T18:48:41.139Z,9.93
2023-04-26T18:51:08.802Z,9.91
2023-04-26T18:53:36.570Z,9.92
2023-04-26T18:56:04.214Z,9.85
2023-04-26T18:58:33.329Z,9.81
2023-04-26T19:01:01.040Z,9.79
2023-04-26T19:03:28.889Z,9.78
2023-04-26T19:05:56.971Z,9.75
2023-04-26T19:08:26.335Z,9.66
2023-04-26T19:10:54.181Z,9.54
2023-04-26T19:13:22.296Z,9.43
2023-04-26T19:15:51.521Z,9.38
2023-04-26T19:18:19.271Z,9.24
2023-04-26T19:20:47.091Z,9.11
2023-04-26T19:23:14.769Z,9.01
2023-04-26T19:25:42.353Z,8.97
2023-04-26T19:28:09.989Z,8.97
2023-04-26T19:30:37.718Z,8.94
2023-04-26T19:33:07.343Z,8.85
2023-04-26T19:35:35.090Z,8.79
2023-04-26T19:38:05.219Z,8.73
2023-04-26T19:40:32.915Z,8.65
2023-04-26T19:43:00.638Z,8.68
2023-04-26T19:45:30.114Z,8.63
2023-04-26T19:47:57.839Z,8.60
2023-04-26T19:50:26.858Z,8.53
2023-04-26T19:52:54.570Z,8.55
2023-04-26T19:55:22.299Z,8.52
2023-04-26T19:57:52.068Z,8.45
2023-04-26T20:00:20.033Z,8.30
2023-04-26T20:02:49.572Z,8.19
2023-04-26T20:05:17.610Z,8.08
2023-04-26T20:07:46.777Z,8.04
2023-04-26T20:10:14.629Z,8.03
2023-04-26T20:12:42.326Z,8.00
2023-04-26T20:15:12.055Z,7.89
2023-04-26T20:17:39.845Z,7.76
2023-04-26T20:20:12.690Z,7.76
2023-04-26T20:22:40.741Z,7.71
2023-04-26T20:25:10.117Z,7.73
2023-04-26T20:27:37.881Z,7.72
2023-04-26T20:30:07.208Z,7.61
2023-04-26T20:32:34.843Z,7.56
2023-04-26T20:35:02.689Z,7.59
2023-04-26T20:37:30.359Z,7.67
2023-04-26T20:39:58.446Z,7.70
2023-04-26T20:42:27.633Z,7.67
2023-04-26T20:44:56.284Z,7.70
2023-04-26T20:47:23.985Z,7.63
2023-04-26T20:49:51.621Z,7.54
2023-04-26T20:52:19.450Z,7.47
2023-04-26T20:54:47.266Z,7.52
2023-04-26T20:57:14.901Z,7.53
2023-04-26T20:59:43.932Z,7.55
2023-04-26T21:02:11.680Z,7.55
2023-04-26T21:04:41.880Z,7.51
2023-04-26T21:07:09.834Z,7.40
2023-04-26T21:09:37.916Z,7.40
2023-04-26T21:12:06.692Z,7.44
2023-04-26T21:14:34.366Z,7.45
2023-04-26T21:17:05.471Z,7.46
2023-04-26T21:19:33.145Z,7.46
2023-04-26T21:22:00.804Z,7.49
2023-04-26T21:24:28.471Z,7.49
2023-04-26T21:26:56.131Z,7.44
2023-04-26T21:29:23.856Z,7.34
2023-04-26T21:31:51.656Z,7.35
2023-04-26T21:34:20.867Z,7.37
2023-04-26T21:36:48.579Z,7.31
2023-04-26T21:39:16.232Z,7.34
2023-04-26T21:41:43.887Z,7.37
2023-04-26T21:44:11.581Z,7.36
2023-04-26T21:46:39.391Z,7.34
2023-04-26T21:49:07.403Z,7.29
2023-04-26T21:51:36.760Z,7.25
2023-04-26T21:54:04.552Z,7.23
2023-04-26T21:56:32.267Z,7.15
2023-04-26T21:58:59.893Z,7.08
2023-04-26T22:01:27.612Z,7.05
2023-04-26T22:03:55.366Z,7.01
2023-04-26T22:06:23.102Z,6.97
2023-04-26T22:08:52.086Z,7.03
2023-04-26T22:11:19.707Z,7.10
2023-04-26T22:13:47.319Z,7.13
2023-04-26T22:16:15.072Z,7.14
2023-04-26T22:18:42.739Z,7.13
2023-04-26T22:21:11.343Z,7.12
2023-04-26T22:23:39.115Z,7.15
2023-04-26T22:26:08.124Z,7.12
2023-04-26T22:28:35.859Z,7.05
2023-04-26T22:31:03.505Z,7.08
2023-04-26T22:33:31.149Z,7.00
2023-04-26T22:35:59.563Z,6.96
2023-04-26T22:38:27.373Z,6.94
2023-04-26T22:40:55.333Z,6.91
2023-04-26T22:43:24.760Z,6.88
2023-04-26T22:45:52.778Z,6.86
2023-04-26T22:48:20.462Z,6.85
2023-04-26T22:50:49.485Z,6.75
2023-04-26T22:53:17.614Z,6.67
2023-04-26T22:55:45.382Z,6.63
2023-04-26T22:58:13.032Z,6.60
2023-04-26T23:00:42.013Z,6.60
2023-04-26T23:03:09.752Z,6.58
2023-04-26T23:05:37.726Z,6.58
2023-04-26T23:08:05.947Z,6.61
2023-04-26T23:10:33.647Z,6.63
2023-04-26T23:13:01.393Z,6.62
2023-04-26T23:15:29.057Z,6.53
2023-04-26T23:17:58.472Z,6.53
2023-04-26T23:20:26.183Z,6.47
2023-04-26T23:22:53.819Z,6.45
2023-04-26T23:25:21.660Z,6.39
2023-04-26T23:27:49.360Z,6.37
2023-04-26T23:30:17.913Z,6.36
2023-04-26T23:32:45.857Z,6.35
2023-04-26T23:35:14.839Z,6.37
2023-04-26T23:37:42.484Z,6.40
2023-04-26T23:40:10.981Z,6.35
2023-04-26T23:42:38.625Z,6.35
2023-04-26T23:45:07.762Z,6.41
2023-04-26T23:47:35.728Z,6.39
2023-04-26T23:50:03.454Z,6.37
2023-04-26T23:52:32.457Z,6.31
2023-04-26T23:55:00.081Z,6.25
2023-04-26T23:57:28.105Z,6.20
2023-04-26T23:59:55.797Z,6.15
